sensor_id;sensor_type;location;lat;lon;timestamp;P1;durP1;ratioP1;P2;durP2;ratioP2
9178;SDS011;4624;48.126;11.546;2022-11-15T00:01:30;4.33;;;3.10;;
9178;SDS011;4624;48.126;11.546;2022-11-15T00:03:57;5.90;;;3.43;;
9178;SDS011;4624;48.126;11.546;2022-11-15T00:06:24;4.03;;;3.57;;
9178;SDS011;4624;48.126;11.546;2022-11-15T00:08:51;3.90;;;3.33;;
9178;SDS011;4624;48.126;11.546;2022-11-15T00:11:17;3.70;;;3.37;;
9178;SDS011;4624;48.126;11.546;2022-11-15T00:13:45;3.50;;;2.83;;
9178;SDS011;4624;48.126;11.546;2022-11-15T00:16:12;4.87;;;2.70;;
9178;SDS011;4624;48.126;11.546;2022-11-15T00:18:39;3.00;;;2.70;;
9178;SDS011;4624;48.126;11.546;2022-11-15T00:21:07;3.17;;;2.50;;
9178;SDS011;4624;48.126;11.546;2022-11-15T00:23:36;3.53;;;2.47;;
9178;SDS011;4624;48.126;11.546;2022-11-15T00:26:02;4.57;;;2.90;;
9178;SDS011;4624;48.126;11.546;2022-11-15T00:28:29;2.60;;;2.40;;
9178;SDS011;4624;48.126;11.546;2022-11-15T00:31:00;2.80;;;2.57;;
9178;SDS011;4624;48.126;11.546;2022-11-15T00:33:28;3.90;;;2.80;;
9178;SDS011;4624;48.126;11.546;2022-11-15T00:35:58;3.20;;;2.70;;
9178;SDS011;4624;48.126;11.546;2022-11-15T00:38:29;3.27;;;2.40;;
9178;SDS011;4624;48.126;11.546;2022-11-15T00:40:57;3.13;;;2.67;;
9178;SDS011;4624;48.126;11.546;2022-11-15T00:43:24;4.07;;;2.57;;
9178;SDS011;4624;48.126;11.546;2022-11-15T00:45:50;4.00;;;2.50;;
9178;SDS011;4624;48.126;11.546;2022-11-15T00:48:19;3.73;;;2.50;;
9178;SDS011;4624;48.126;11.546;2022-11-15T00:50:45;3.70;;;2.20;;
9178;SDS011;4624;48.126;11.546;2022-11-15T00:53:12;2.27;;;2.07;;
9178;SDS011;4624;48.126;11.546;2022-11-15T00:55:39;2.40;;;2.20;;
9178;SDS011;4624;48.126;11.546;2022-11-15T00:58:05;2.40;;;2.17;;
9178;SDS011;4624;48.126;11.546;2022-11-15T01:00:32;3.30;;;2.47;;
9178;SDS011;4624;48.126;11.546;2022-11-15T01:02:59;3.03;;;2.43;;
9178;SDS011;4624;48.126;11.546;2022-11-15T01:05:27;5.13;;;2.43;;
9178;SDS011;4624;48.126;11.546;2022-11-15T01:07:54;2.60;;;2.20;;
9178;SDS011;4624;48.126;11.546;2022-11-15T01:10:22;3.73;;;2.20;;
9178;SDS011;4624;48.126;11.546;2022-11-15T01:12:50;2.47;;;2.23;;
9178;SDS011;4624;48.126;11.546;2022-11-15T01:15:17;3.53;;;2.57;;
9178;SDS011;4624;48.126;11.546;2022-11-15T01:17:44;4.17;;;2.80;;
9178;SDS011;4624;48.126;11.546;2022-11-15T01:20:11;3.13;;;2.83;;
9178;SDS011;4624;48.126;11.546;2022-11-15T01:22:39;4.33;;;2.63;;
9178;SDS011;4624;48.126;11.546;2022-11-15T01:25:06;4.03;;;2.87;;
9178;SDS011;4624;48.126;11.546;2022-11-15T01:27:33;2.70;;;2.47;;
9178;SDS011;4624;48.126;11.546;2022-11-15T01:29:59;4.00;;;2.50;;
9178;SDS011;4624;48.126;11.546;2022-11-15T01:32:26;3.77;;;3.00;;
9178;SDS011;4624;48.126;11.546;2022-11-15T01:34:53;3.20;;;2.90;;
9178;SDS011;4624;48.126;11.546;2022-11-15T01:37:20;3.40;;;3.10;;
9178;SDS011;4624;48.126;11.546;2022-11-15T01:39:48;2.63;;;2.43;;
9178;SDS011;4624;48.126;11.546;2022-11-15T01:42:14;2.50;;;2.30;;
9178;SDS011;4624;48.126;11.546;2022-11-15T01:44:42;2.20;;;2.00;;
9178;SDS011;4624;48.126;11.546;2022-11-15T01:47:12;2.40;;;2.20;;
9178;SDS011;4624;48.126;11.546;2022-11-15T01:49:44;2.53;;;2.30;;
9178;SDS011;4624;48.126;11.546;2022-11-15T01:52:17;2.03;;;1.93;;
9178;SDS011;4624;48.126;11.546;2022-11-15T01:54:48;3.03;;;2.40;;
9178;SDS011;4624;48.126;11.546;2022-11-15T01:57:17;3.40;;;2.27;;
9178;SDS011;4624;48.126;11.546;2022-11-15T01:59:44;2.67;;;2.47;;
9178;SDS011;4624;48.126;11.546;2022-11-15T02:02:12;2.10;;;1.90;;
9178;SDS011;4624;48.126;11.546;2022-11-15T02:04:40;2.10;;;1.93;;
9178;SDS011;4624;48.126;11.546;2022-11-15T02:07:08;2.27;;;2.07;;
9178;SDS011;4624;48.126;11.546;2022-11-15T02:09:37;3.83;;;2.17;;
9178;SDS011;4624;48.126;11.546;2022-11-15T02:12:06;1.87;;;1.67;;
9178;SDS011;4624;48.126;11.546;2022-11-15T02:14:34;2.10;;;2.00;;
9178;SDS011;4624;48.126;11.546;2022-11-15T02:17:07;6.47;;;2.17;;
9178;SDS011;4624;48.126;11.546;2022-11-15T02:19:55;2.83;;;2.10;;
9178;SDS011;4624;48.126;11.546;2022-11-15T02:22:41;2.13;;;1.80;;
9178;SDS011;4624;48.126;11.546;2022-11-15T02:25:22;3.17;;;1.67;;
9178;SDS011;4624;48.126;11.546;2022-11-15T02:28:19;3.17;;;1.60;;
9178;SDS011;4624;48.126;11.546;2022-11-15T02:31:05;2.23;;;2.03;;
9178;SDS011;4624;48.126;11.546;2022-11-15T02:33:41;2.07;;;1.83;;
9178;SDS011;4624;48.126;11.546;2022-11-15T02:36:18;2.07;;;1.80;;
9178;SDS011;4624;48.126;11.546;2022-11-15T02:38:54;2.30;;;1.50;;
9178;SDS011;4624;48.126;11.546;2022-11-15T02:41:26;3.70;;;2.17;;
9178;SDS011;4624;48.126;11.546;2022-11-15T02:44:00;3.67;;;2.43;;
9178;SDS011;4624;48.126;11.546;2022-11-15T02:46:33;3.43;;;2.20;;
9178;SDS011;4624;48.126;11.546;2022-11-15T02:49:20;2.00;;;1.80;;
9178;SDS011;4624;48.126;11.546;2022-11-15T02:51:48;1.50;;;1.30;;
9178;SDS011;4624;48.126;11.546;2022-11-15T02:54:18;1.63;;;1.53;;
9178;SDS011;4624;48.126;11.546;2022-11-15T02:56:48;1.30;;;1.20;;
9178;SDS011;4624;48.126;11.546;2022-11-15T02:59:20;2.30;;;1.93;;
9178;SDS011;4624;48.126;11.546;2022-11-15T03:02:11;2.63;;;1.20;;
9178;SDS011;4624;48.126;11.546;2022-11-15T03:04:50;2.50;;;1.43;;
9178;SDS011;4624;48.126;11.546;2022-11-15T03:07:23;1.30;;;1.20;;
9178;SDS011;4624;48.126;11.546;2022-11-15T03:09:54;2.30;;;1.30;;
9178;SDS011;4624;48.126;11.546;2022-11-15T03:12:29;1.70;;;1.40;;
9178;SDS011;4624;48.126;11.546;2022-11-15T03:15:01;1.20;;;1.10;;
9178;SDS011;4624;48.126;11.546;2022-11-15T03:17:34;1.77;;;1.50;;
9178;SDS011;4624;48.126;11.546;2022-11-15T03:20:05;3.80;;;1.53;;
9178;SDS011;4624;48.126;11.546;2022-11-15T03:22:34;1.60;;;1.50;;
9178;SDS011;4624;48.126;11.546;2022-11-15T03:25:04;1.57;;;1.47;;
9178;SDS011;4624;48.126;11.546;2022-11-15T03:27:33;1.40;;;1.30;;
9178;SDS011;4624;48.126;11.546;2022-11-15T03:30:05;2.87;;;1.90;;
9178;SDS011;4624;48.126;11.546;2022-11-15T03:32:36;2.00;;;1.60;;
9178;SDS011;4624;48.126;11.546;2022-11-15T03:35:08;1.60;;;1.50;;
9178;SDS011;4624;48.126;11.546;2022-11-15T03:37:40;2.30;;;1.90;;
9178;SDS011;4624;48.126;11.546;2022-11-15T03:40:10;2.20;;;1.77;;
9178;SDS011;4624;48.126;11.546;2022-11-15T03:42:38;2.90;;;1.70;;
9178;SDS011;4624;48.126;11.546;2022-11-15T03:45:13;1.73;;;1.63;;
9178;SDS011;4624;48.126;11.546;2022-11-15T03:47:45;2.90;;;1.60;;
9178;SDS011;4624;48.126;11.546;2022-11-15T03:50:16;2.30;;;1.60;;
9178;SDS011;4624;48.126;11.546;2022-11-15T03:52:44;2.73;;;1.60;;
9178;SDS011;4624;48.126;11.546;2022-11-15T03:55:13;2.50;;;1.77;;
9178;SDS011;4624;48.126;11.546;2022-11-15T03:57:42;1.70;;;1.60;;
9178;SDS011;4624;48.126;11.546;2022-11-15T04:00:10;2.50;;;1.80;;
9178;SDS011;4624;48.126;11.546;2022-11-15T04:02:37;1.37;;;1.20;;
9178;SDS011;4624;48.126;11.546;2022-11-15T04:05:05;1.90;;;1.40;;
9178;SDS011;4624;48.126;11.546;2022-11-15T04:07:32;1.70;;;1.60;;
9178;SDS011;4624;48.126;11.546;2022-11-15T04:09:59;2.00;;;1.80;;
9178;SDS011;4624;48.126;11.546;2022-11-15T04:12:30;3.00;;;1.77;;
9178;SDS011;4624;48.126;11.546;2022-11-15T04:15:02;2.90;;;1.47;;
9178;SDS011;4624;48.126;11.546;2022-11-15T04:17:34;4.30;;;2.10;;
9178;SDS011;4624;48.126;11.546;2022-11-15T04:20:03;3.13;;;1.33;;
9178;SDS011;4624;48.126;11.546;2022-11-15T04:22:49;2.67;;;1.40;;
9178;SDS011;4624;48.126;11.546;2022-11-15T04:25:36;1.50;;;1.37;;
9178;SDS011;4624;48.126;11.546;2022-11-15T04:28:03;2.50;;;1.47;;
9178;SDS011;4624;48.126;11.546;2022-11-15T04:30:30;2.33;;;1.47;;
9178;SDS011;4624;48.126;11.546;2022-11-15T04:32:57;3.10;;;1.53;;
9178;SDS011;4624;48.126;11.546;2022-11-15T04:35:24;1.57;;;1.30;;
9178;SDS011;4624;48.126;11.546;2022-11-15T04:37:52;2.73;;;1.27;;
9178;SDS011;4624;48.126;11.546;2022-11-15T04:40:18;2.13;;;1.30;;
9178;SDS011;4624;48.126;11.546;2022-11-15T04:42:45;1.30;;;1.20;;
9178;SDS011;4624;48.126;11.546;2022-11-15T04:45:12;3.10;;;1.27;;
9178;SDS011;4624;48.126;11.546;2022-11-15T04:47:38;2.80;;;1.33;;
9178;SDS011;4624;48.126;11.546;2022-11-15T04:50:06;1.40;;;1.30;;
9178;SDS011;4624;48.126;11.546;2022-11-15T04:52:33;1.97;;;1.20;;
9178;SDS011;4624;48.126;11.546;2022-11-15T04:55:01;4.37;;;1.20;;
9178;SDS011;4624;48.126;11.546;2022-11-15T04:57:28;1.53;;;1.43;;
9178;SDS011;4624;48.126;11.546;2022-11-15T04:59:54;2.80;;;1.63;;
9178;SDS011;4624;48.126;11.546;2022-11-15T05:02:21;1.90;;;1.13;;
9178;SDS011;4624;48.126;11.546;2022-11-15T05:04:48;1.07;;;0.93;;
9178;SDS011;4624;48.126;11.546;2022-11-15T05:07:14;1.30;;;1.20;;
9178;SDS011;4624;48.126;11.546;2022-11-15T05:09:40;1.60;;;1.00;;
9178;SDS011;4624;48.126;11.546;2022-11-15T05:12:08;2.20;;;1.20;;
9178;SDS011;4624;48.126;11.546;2022-11-15T05:14:35;1.67;;;1.33;;
9178;SDS011;4624;48.126;11.546;2022-11-15T05:17:02;3.53;;;1.57;;
9178;SDS011;4624;48.126;11.546;2022-11-15T05:19:28;2.80;;;1.67;;
9178;SDS011;4624;48.126;11.546;2022-11-15T05:21:55;2.53;;;1.23;;
9178;SDS011;4624;48.126;11.546;2022-11-15T05:24:22;3.13;;;1.30;;
9178;SDS011;4624;48.126;11.546;2022-11-15T05:26:49;1.60;;;1.50;;
9178;SDS011;4624;48.126;11.546;2022-11-15T05:29:17;1.30;;;1.20;;
9178;SDS011;4624;48.126;11.546;2022-11-15T05:31:43;1.17;;;1.00;;
9178;SDS011;4624;48.126;11.546;2022-11-15T05:34:10;2.87;;;0.93;;
9178;SDS011;4624;48.126;11.546;2022-11-15T05:36:38;1.50;;;1.10;;
9178;SDS011;4624;48.126;11.546;2022-11-15T05:39:07;1.33;;;1.07;;
9178;SDS011;4624;48.126;11.546;2022-11-15T05:41:35;1.10;;;1.00;;
9178;SDS011;4624;48.126;11.546;2022-11-15T05:44:06;1.67;;;1.27;;
9178;SDS011;4624;48.126;11.546;2022-11-15T05:46:36;1.47;;;1.20;;
9178;SDS011;4624;48.126;11.546;2022-11-15T05:49:04;1.60;;;1.33;;
9178;SDS011;4624;48.126;11.546;2022-11-15T05:51:35;3.10;;;1.40;;
9178;SDS011;4624;48.126;11.546;2022-11-15T05:54:02;2.50;;;1.33;;
9178;SDS011;4624;48.126;11.546;2022-11-15T05:56:29;2.40;;;1.60;;
9178;SDS011;4624;48.126;11.546;2022-11-15T05:58:56;3.83;;;1.87;;
9178;SDS011;4624;48.126;11.546;2022-11-15T06:01:24;1.53;;;1.30;;
9178;SDS011;4624;48.126;11.546;2022-11-15T06:03:53;3.40;;;1.60;;
9178;SDS011;4624;48.126;11.546;2022-11-15T06:06:20;1.97;;;1.63;;
9178;SDS011;4624;48.126;11.546;2022-11-15T06:08:47;1.63;;;1.23;;
9178;SDS011;4624;48.126;11.546;2022-11-15T06:11:14;1.63;;;1.33;;
9178;SDS011;4624;48.126;11.546;2022-11-15T06:13:40;1.27;;;1.17;;
9178;SDS011;4624;48.126;11.546;2022-11-15T06:16:07;2.50;;;1.30;;
9178;SDS011;4624;48.126;11.546;2022-11-15T06:18:34;1.57;;;1.47;;
9178;SDS011;4624;48.126;11.546;2022-11-15T06:21:03;2.00;;;1.53;;
9178;SDS011;4624;48.126;11.546;2022-11-15T06:23:31;1.90;;;1.80;;
9178;SDS011;4624;48.126;11.546;2022-11-15T06:25:59;2.00;;;1.80;;
9178;SDS011;4624;48.126;11.546;2022-11-15T06:28:27;3.60;;;1.50;;
9178;SDS011;4624;48.126;11.546;2022-11-15T06:30:54;2.53;;;2.00;;
9178;SDS011;4624;48.126;11.546;2022-11-15T06:33:22;5.23;;;2.50;;
9178;SDS011;4624;48.126;11.546;2022-11-15T06:35:48;4.23;;;2.40;;
9178;SDS011;4624;48.126;11.546;2022-11-15T06:38:16;6.00;;;2.07;;
9178;SDS011;4624;48.126;11.546;2022-11-15T06:40:43;3.60;;;1.43;;
9178;SDS011;4624;48.126;11.546;2022-11-15T06:43:10;4.00;;;1.60;;
9178;SDS011;4624;48.126;11.546;2022-11-15T06:45:37;4.33;;;2.97;;
9178;SDS011;4624;48.126;11.546;2022-11-15T06:48:04;2.83;;;2.10;;
9178;SDS011;4624;48.126;11.546;2022-11-15T06:50:31;3.87;;;1.80;;
9178;SDS011;4624;48.126;11.546;2022-11-15T06:53:00;4.63;;;1.90;;
9178;SDS011;4624;48.126;11.546;2022-11-15T06:55:29;3.90;;;2.00;;
9178;SDS011;4624;48.126;11.546;2022-11-15T06:57:56;2.90;;;2.00;;
9178;SDS011;4624;48.126;11.546;2022-11-15T07:00:22;2.67;;;1.60;;
9178;SDS011;4624;48.126;11.546;2022-11-15T07:02:49;2.07;;;1.70;;
9178;SDS011;4624;48.126;11.546;2022-11-15T07:05:16;3.20;;;1.30;;
9178;SDS011;4624;48.126;11.546;2022-11-15T07:07:43;2.30;;;1.40;;
9178;SDS011;4624;48.126;11.546;2022-11-15T07:10:16;1.27;;;1.03;;
9178;SDS011;4624;48.126;11.546;2022-11-15T07:12:47;4.57;;;1.23;;
9178;SDS011;4624;48.126;11.546;2022-11-15T07:15:14;2.03;;;1.37;;
9178;SDS011;4624;48.126;11.546;2022-11-15T07:17:41;4.67;;;1.40;;
9178;SDS011;4624;48.126;11.546;2022-11-15T07:20:09;5.90;;;1.67;;
9178;SDS011;4624;48.126;11.546;2022-11-15T07:22:36;4.57;;;1.83;;
9178;SDS011;4624;48.126;11.546;2022-11-15T07:25:03;3.77;;;1.90;;
9178;SDS011;4624;48.126;11.546;2022-11-15T07:27:30;4.70;;;2.53;;
9178;SDS011;4624;48.126;11.546;2022-11-15T07:29:58;5.13;;;2.40;;
9178;SDS011;4624;48.126;11.546;2022-11-15T07:32:25;2.07;;;1.67;;
9178;SDS011;4624;48.126;11.546;2022-11-15T07:34:52;1.67;;;1.57;;
9178;SDS011;4624;48.126;11.546;2022-11-15T07:37:19;2.10;;;1.73;;
9178;SDS011;4624;48.126;11.546;2022-11-15T07:39:45;3.07;;;1.83;;
9178;SDS011;4624;48.126;11.546;2022-11-15T07:42:12;5.60;;;2.57;;
9178;SDS011;4624;48.126;11.546;2022-11-15T07:44:57;2.03;;;1.60;;
9178;SDS011;4624;48.126;11.546;2022-11-15T07:47:25;3.90;;;1.80;;
9178;SDS011;4624;48.126;11.546;2022-11-15T07:49:54;2.23;;;1.80;;
9178;SDS011;4624;48.126;11.546;2022-11-15T07:52:20;3.40;;;1.70;;
9178;SDS011;4624;48.126;11.546;2022-11-15T07:54:47;3.23;;;1.87;;
9178;SDS011;4624;48.126;11.546;2022-11-15T07:57:14;6.33;;;2.17;;
9178;SDS011;4624;48.126;11.546;2022-11-15T07:59:41;3.10;;;2.50;;
9178;SDS011;4624;48.126;11.546;2022-11-15T08:02:09;3.63;;;2.00;;
9178;SDS011;4624;48.126;11.546;2022-11-15T08:04:36;6.83;;;2.40;;
9178;SDS011;4624;48.126;11.546;2022-11-15T08:07:03;3.97;;;2.43;;
9178;SDS011;4624;48.126;11.546;2022-11-15T08:09:30;8.47;;;4.27;;
9178;SDS011;4624;48.126;11.546;2022-11-15T08:11:56;9.00;;;4.30;;
9178;SDS011;4624;48.126;11.546;2022-11-15T08:14:23;5.57;;;3.50;;
9178;SDS011;4624;48.126;11.546;2022-11-15T08:16:50;4.37;;;3.10;;
9178;SDS011;4624;48.126;11.546;2022-11-15T08:19:18;3.67;;;1.70;;
9178;SDS011;4624;48.126;11.546;2022-11-15T08:21:45;3.60;;;1.60;;
9178;SDS011;4624;48.126;11.546;2022-11-15T08:24:12;2.33;;;1.90;;
9178;SDS011;4624;48.126;11.546;2022-11-15T08:26:39;4.03;;;2.10;;
9178;SDS011;4624;48.126;11.546;2022-11-15T08:29:06;2.00;;;1.70;;
9178;SDS011;4624;48.126;11.546;2022-11-15T08:31:33;3.37;;;1.47;;
9178;SDS011;4624;48.126;11.546;2022-11-15T08:34:01;2.13;;;1.50;;
9178;SDS011;4624;48.126;11.546;2022-11-15T08:36:29;2.00;;;1.73;;
9178;SDS011;4624;48.126;11.546;2022-11-15T08:38:56;4.13;;;1.80;;
9178;SDS011;4624;48.126;11.546;2022-11-15T08:41:24;2.07;;;1.60;;
9178;SDS011;4624;48.126;11.546;2022-11-15T08:43:52;2.90;;;1.60;;
9178;SDS011;4624;48.126;11.546;2022-11-15T08:46:19;2.23;;;1.87;;
9178;SDS011;4624;48.126;11.546;2022-11-15T08:48:46;5.40;;;1.83;;
9178;SDS011;4624;48.126;11.546;2022-11-15T08:51:13;4.87;;;1.93;;
9178;SDS011;4624;48.126;11.546;2022-11-15T08:53:41;2.97;;;2.13;;
9178;SDS011;4624;48.126;11.546;2022-11-15T08:56:09;3.97;;;2.30;;
9178;SDS011;4624;48.126;11.546;2022-11-15T08:58:36;1.70;;;1.60;;
9178;SDS011;4624;48.126;11.546;2022-11-15T09:01:03;4.03;;;1.52;;
9178;SDS011;4624;48.126;11.546;2022-11-15T09:03:31;1.63;;;1.52;;
9178;SDS011;4624;48.126;11.546;2022-11-15T09:05:58;3.20;;;2.10;;
9178;SDS011;4624;48.126;11.546;2022-11-15T09:08:29;4.13;;;2.15;;
9178;SDS011;4624;48.126;11.546;2022-11-15T09:10:57;3.40;;;2.00;;
9178;SDS011;4624;48.126;11.546;2022-11-15T09:13:24;3.88;;;2.00;;
9178;SDS011;4624;48.126;11.546;2022-11-15T09:15:51;3.55;;;1.90;;
9178;SDS011;4624;48.126;11.546;2022-11-15T09:18:17;2.75;;;1.58;;
9178;SDS011;4624;48.126;11.546;2022-11-15T09:20:47;2.13;;;1.60;;
9178;SDS011;4624;48.126;11.546;2022-11-15T09:23:13;3.05;;;1.50;;
9178;SDS011;4624;48.126;11.546;2022-11-15T09:25:40;4.78;;;1.63;;
9178;SDS011;4624;48.126;11.546;2022-11-15T09:28:08;2.50;;;1.50;;
9178;SDS011;4624;48.126;11.546;2022-11-15T09:30:35;2.35;;;1.65;;
9178;SDS011;4624;48.126;11.546;2022-11-15T09:33:06;2.15;;;1.60;;
9178;SDS011;4624;48.126;11.546;2022-11-15T09:35:33;3.65;;;2.00;;
9178;SDS011;4624;48.126;11.546;2022-11-15T09:38:00;2.92;;;1.40;;
9178;SDS011;4624;48.126;11.546;2022-11-15T09:40:27;2.63;;;1.50;;
9178;SDS011;4624;48.126;11.546;2022-11-15T09:43:00;3.80;;;2.35;;
9178;SDS011;4624;48.126;11.546;2022-11-15T09:45:47;2.38;;;1.55;;
9178;SDS011;4624;48.126;11.546;2022-11-15T09:48:35;4.55;;;1.63;;
9178;SDS011;4624;48.126;11.546;2022-11-15T09:51:14;1.77;;;1.67;;
9178;SDS011;4624;48.126;11.546;2022-11-15T09:53:51;3.97;;;1.73;;
9178;SDS011;4624;48.126;11.546;2022-11-15T09:56:28;2.00;;;1.80;;
9178;SDS011;4624;48.126;11.546;2022-11-15T09:58:59;2.00;;;1.77;;
9178;SDS011;4624;48.126;11.546;2022-11-15T10:01:43;5.05;;;1.80;;
9178;SDS011;4624;48.126;11.546;2022-11-15T10:04:15;4.68;;;2.00;;
9178;SDS011;4624;48.126;11.546;2022-11-15T10:06:51;1.77;;;1.63;;
9178;SDS011;4624;48.126;11.546;2022-11-15T10:09:23;3.28;;;2.05;;
9178;SDS011;4624;48.126;11.546;2022-11-15T10:11:54;1.73;;;1.63;;
9178;SDS011;4624;48.126;11.546;2022-11-15T10:14:23;2.10;;;1.75;;
9178;SDS011;4624;48.126;11.546;2022-11-15T10:17:02;1.73;;;1.63;;
9178;SDS011;4624;48.126;11.546;2022-11-15T10:19:47;2.47;;;1.70;;
9178;SDS011;4624;48.126;11.546;2022-11-15T10:22:24;2.08;;;1.40;;
9178;SDS011;4624;48.126;11.546;2022-11-15T10:24:58;1.90;;;1.30;;
9178;SDS011;4624;48.126;11.546;2022-11-15T10:27:42;1.73;;;1.13;;
9178;SDS011;4624;48.126;11.546;2022-11-15T10:30:15;1.35;;;1.23;;
9178;SDS011;4624;48.126;11.546;2022-11-15T10:32:44;2.40;;;1.10;;
9178;SDS011;4624;48.126;11.546;2022-11-15T10:35:16;3.27;;;1.00;;
9178;SDS011;4624;48.126;11.546;2022-11-15T10:37:45;1.90;;;1.30;;
9178;SDS011;4624;48.126;11.546;2022-11-15T10:40:15;1.73;;;1.20;;
9178;SDS011;4624;48.126;11.546;2022-11-15T10:42:43;2.03;;;1.27;;
9178;SDS011;4624;48.126;11.546;2022-11-15T10:45:23;1.90;;;1.10;;
9178;SDS011;4624;48.126;11.546;2022-11-15T10:47:52;1.20;;;1.10;;
9178;SDS011;4624;48.126;11.546;2022-11-15T10:50:26;0.80;;;0.80;;
9178;SDS011;4624;48.126;11.546;2022-11-15T10:52:55;1.63;;;1.43;;
9178;SDS011;4624;48.126;11.546;2022-11-15T10:55:23;2.30;;;1.13;;
9178;SDS011;4624;48.126;11.546;2022-11-15T10:57:53;1.17;;;1.07;;
9178;SDS011;4624;48.126;11.546;2022-11-15T11:00:30;1.20;;;1.10;;
9178;SDS011;4624;48.126;11.546;2022-11-15T11:03:00;0.93;;;0.90;;
9178;SDS011;4624;48.126;11.546;2022-11-15T11:05:30;1.63;;;1.30;;
9178;SDS011;4624;48.126;11.546;2022-11-15T11:07:59;2.73;;;0.93;;
9178;SDS011;4624;48.126;11.546;2022-11-15T11:10:27;1.10;;;1.00;;
9178;SDS011;4624;48.126;11.546;2022-11-15T11:12:54;1.97;;;0.90;;
9178;SDS011;4624;48.126;11.546;2022-11-15T11:15:22;0.93;;;0.90;;
9178;SDS011;4624;48.126;11.546;2022-11-15T11:18:01;1.20;;;1.10;;
9178;SDS011;4624;48.126;11.546;2022-11-15T11:20:36;1.20;;;1.07;;
9178;SDS011;4624;48.126;11.546;2022-11-15T11:23:14;1.30;;;0.70;;
9178;SDS011;4624;48.126;11.546;2022-11-15T11:25:49;0.87;;;0.73;;
9178;SDS011;4624;48.126;11.546;2022-11-15T11:28:28;0.97;;;0.97;;
9178;SDS011;4624;48.126;11.546;2022-11-15T11:31:06;0.60;;;0.60;;
9178;SDS011;4624;48.126;11.546;2022-11-15T11:33:44;0.80;;;0.80;;
9178;SDS011;4624;48.126;11.546;2022-11-15T11:36:25;3.77;;;0.97;;
9178;SDS011;4624;48.126;11.546;2022-11-15T11:39:07;0.70;;;0.70;;
9178;SDS011;4624;48.126;11.546;2022-11-15T11:42:00;1.40;;;1.10;;
9178;SDS011;4624;48.126;11.546;2022-11-15T11:44:35;2.80;;;1.40;;
9178;SDS011;4624;48.126;11.546;2022-11-15T11:47:10;1.00;;;0.80;;
9178;SDS011;4624;48.126;11.546;2022-11-15T11:49:43;0.80;;;0.80;;
9178;SDS011;4624;48.126;11.546;2022-11-15T11:52:14;2.33;;;0.90;;
9178;SDS011;4624;48.126;11.546;2022-11-15T11:54:51;1.13;;;0.80;;
9178;SDS011;4624;48.126;11.546;2022-11-15T11:57:33;1.20;;;0.77;;
9178;SDS011;4624;48.126;11.546;2022-11-15T12:00:12;0.80;;;0.80;;
9178;SDS011;4624;48.126;11.546;2022-11-15T12:02:43;0.77;;;0.50;;
9178;SDS011;4624;48.126;11.546;2022-11-15T12:05:18;1.00;;;0.90;;
9178;SDS011;4624;48.126;11.546;2022-11-15T12:07:49;3.20;;;0.90;;
9178;SDS011;4624;48.126;11.546;2022-11-15T12:10:20;1.20;;;1.00;;
9178;SDS011;4624;48.126;11.546;2022-11-15T12:12:54;1.03;;;0.90;;
9178;SDS011;4624;48.126;11.546;2022-11-15T12:15:26;2.20;;;1.00;;
9178;SDS011;4624;48.126;11.546;2022-11-15T12:17:56;1.03;;;0.90;;
9178;SDS011;4624;48.126;11.546;2022-11-15T12:20:26;1.10;;;0.83;;
9178;SDS011;4624;48.126;11.546;2022-11-15T12:22:56;0.97;;;0.87;;
9178;SDS011;4624;48.126;11.546;2022-11-15T12:25:27;1.63;;;1.00;;
9178;SDS011;4624;48.126;11.546;2022-11-15T12:27:58;1.10;;;0.60;;
9178;SDS011;4624;48.126;11.546;2022-11-15T12:30:43;1.10;;;0.90;;
9178;SDS011;4624;48.126;11.546;2022-11-15T12:33:31;1.00;;;0.70;;
9178;SDS011;4624;48.126;11.546;2022-11-15T12:36:03;0.90;;;0.83;;
9178;SDS011;4624;48.126;11.546;2022-11-15T12:38:50;2.00;;;0.80;;
9178;SDS011;4624;48.126;11.546;2022-11-15T12:41:20;2.10;;;0.90;;
9178;SDS011;4624;48.126;11.546;2022-11-15T12:43:48;0.80;;;0.60;;
9178;SDS011;4624;48.126;11.546;2022-11-15T12:46:20;1.03;;;0.60;;
9178;SDS011;4624;48.126;11.546;2022-11-15T12:49:02;0.90;;;0.80;;
9178;SDS011;4624;48.126;11.546;2022-11-15T12:54:53;0.80;;;0.80;;
9178;SDS011;4624;48.126;11.546;2022-11-15T12:57:26;0.70;;;0.70;;
9178;SDS011;4624;48.126;11.546;2022-11-15T13:03:24;1.13;;;0.70;;
9178;SDS011;4624;48.126;11.546;2022-11-15T13:05:57;1.10;;;0.93;;
9178;SDS011;4624;48.126;11.546;2022-11-15T13:08:37;1.03;;;0.93;;
9178;SDS011;4624;48.126;11.546;2022-11-15T13:17:10;1.10;;;1.00;;
9178;SDS011;4624;48.126;11.546;2022-11-15T13:19:58;1.63;;;1.00;;
9178;SDS011;4624;48.126;11.546;2022-11-15T13:22:32;1.50;;;1.40;;
9178;SDS011;4624;48.126;11.546;2022-11-15T13:25:30;0.83;;;0.80;;
9178;SDS011;4624;48.126;11.546;2022-11-15T13:28:22;1.67;;;0.80;;
9178;SDS011;4624;48.126;11.546;2022-11-15T13:30:53;1.13;;;1.00;;
9178;SDS011;4624;48.126;11.546;2022-11-15T13:33:22;0.80;;;0.80;;
9178;SDS011;4624;48.126;11.546;2022-11-15T13:35:51;1.37;;;1.27;;
9178;SDS011;4624;48.126;11.546;2022-11-15T13:38:25;1.20;;;1.00;;
9178;SDS011;4624;48.126;11.546;2022-11-15T13:40:54;1.10;;;1.00;;
9178;SDS011;4624;48.126;11.546;2022-11-15T13:43:31;1.23;;;0.90;;
9178;SDS011;4624;48.126;11.546;2022-11-15T13:46:04;2.03;;;1.20;;
9178;SDS011;4624;48.126;11.546;2022-11-15T13:48:32;2.03;;;0.97;;
9178;SDS011;4624;48.126;11.546;2022-11-15T13:50:59;1.00;;;0.97;;
9178;SDS011;4624;48.126;11.546;2022-11-15T13:53:27;0.90;;;0.90;;
9178;SDS011;4624;48.126;11.546;2022-11-15T13:55:57;1.27;;;1.13;;
9178;SDS011;4624;48.126;11.546;2022-11-15T13:58:25;1.90;;;1.20;;
9178;SDS011;4624;48.126;11.546;2022-11-15T14:00:58;1.70;;;1.00;;
9178;SDS011;4624;48.126;11.546;2022-11-15T14:03:27;1.63;;;0.80;;
9178;SDS011;4624;48.126;11.546;2022-11-15T14:06:03;1.27;;;1.00;;
9178;SDS011;4624;48.126;11.546;2022-11-15T14:08:32;1.53;;;1.20;;
9178;SDS011;4624;48.126;11.546;2022-11-15T14:11:13;1.70;;;1.30;;
9178;SDS011;4624;48.126;11.546;2022-11-15T14:14:02;1.37;;;1.10;;
9178;SDS011;4624;48.126;11.546;2022-11-15T14:16:38;1.20;;;1.10;;
9178;SDS011;4624;48.126;11.546;2022-11-15T14:19:09;1.03;;;1.00;;
9178;SDS011;4624;48.126;11.546;2022-11-15T14:21:37;1.00;;;1.00;;
9178;SDS011;4624;48.126;11.546;2022-11-15T14:24:34;1.20;;;1.10;;
9178;SDS011;4624;48.126;11.546;2022-11-15T14:27:16;1.17;;;1.07;;
9178;SDS011;4624;48.126;11.546;2022-11-15T14:29:47;2.00;;;1.20;;
9178;SDS011;4624;48.126;11.546;2022-11-15T14:32:15;1.30;;;1.20;;
9178;SDS011;4624;48.126;11.546;2022-11-15T14:34:44;2.63;;;1.17;;
9178;SDS011;4624;48.126;11.546;2022-11-15T14:37:21;2.10;;;1.20;;
9178;SDS011;4624;48.126;11.546;2022-11-15T14:39:50;1.27;;;1.17;;
9178;SDS011;4624;48.126;11.546;2022-11-15T14:42:19;1.60;;;1.13;;
9178;SDS011;4624;48.126;11.546;2022-11-15T14:44:47;2.03;;;1.13;;
9178;SDS011;4624;48.126;11.546;2022-11-15T14:47:14;1.60;;;1.37;;
9178;SDS011;4624;48.126;11.546;2022-11-15T14:49:41;1.60;;;1.37;;
9178;SDS011;4624;48.126;11.546;2022-11-15T14:52:13;2.60;;;1.43;;
9178;SDS011;4624;48.126;11.546;2022-11-15T14:54:49;3.63;;;1.90;;
9178;SDS011;4624;48.126;11.546;2022-11-15T14:57:15;1.83;;;1.53;;
9178;SDS011;4624;48.126;11.546;2022-11-15T14:59:44;1.70;;;1.60;;
9178;SDS011;4624;48.126;11.546;2022-11-15T15:02:13;2.70;;;1.87;;
9178;SDS011;4624;48.126;11.546;2022-11-15T15:04:42;3.33;;;1.43;;
9178;SDS011;4624;48.126;11.546;2022-11-15T15:07:09;2.10;;;1.53;;
9178;SDS011;4624;48.126;11.546;2022-11-15T15:09:36;4.30;;;2.00;;
9178;SDS011;4624;48.126;11.546;2022-11-15T15:12:02;4.23;;;2.50;;
9178;SDS011;4624;48.126;11.546;2022-11-15T15:14:29;8.67;;;3.40;;
9178;SDS011;4624;48.126;11.546;2022-11-15T15:16:57;3.10;;;2.67;;
9178;SDS011;4624;48.126;11.546;2022-11-15T15:19:24;4.20;;;2.70;;
9178;SDS011;4624;48.126;11.546;2022-11-15T15:21:51;4.70;;;2.73;;
9178;SDS011;4624;48.126;11.546;2022-11-15T15:24:18;4.63;;;3.13;;
9178;SDS011;4624;48.126;11.546;2022-11-15T15:26:44;5.40;;;2.90;;
9178;SDS011;4624;48.126;11.546;2022-11-15T15:29:11;6.30;;;2.60;;
9178;SDS011;4624;48.126;11.546;2022-11-15T15:31:38;5.77;;;3.53;;
9178;SDS011;4624;48.126;11.546;2022-11-15T15:34:06;4.63;;;3.43;;